Friday, October 19, 2018, 7:13 AM GMT
Back to Local

CWBK, Caribou Point Meteorological Aeronautical Presentation System

Location: , , Canada Lat: 45.767
Local Time: 7:13 AM GMT ( 7:13 GMT) Lon: -62.683
Time Zone: GMT Elev: 6 ft

Show me the last for .
Show Coded

Time T Td Feel RH Dir Speed Gust Alt SLP Vis Weather Sky Remarks
2018-10-19 07:00 37 31 22 78 290° 36 44 - 29.86 0 Peak wind: 55 mph (48 kts) from 280° at 42 min
1-hr Precip Total: 0.04"
2018-10-19 06:00 37 29 21 73 300° 39 55 - 29.85 0 Peak wind: 55 mph (48 kts) from 290° at 55 min
2018-10-19 05:00 40 29 25 64 300° 38 49 - 29.83 0 Peak wind: 50 mph (44 kts) from 300° at 47 min
2018-10-19 04:00 38 29 24 69 310° 38 45 - 29.82 0 Peak wind: 49 mph (43 kts) from 280° at 35 min
2018-10-19 03:00 41 29 27 62 310° 37 46 - 29.80 0 Peak wind: 49 mph (43 kts) from 310° at 14 min
2018-10-19 02:00 41 28 28 58 310° 39 45 - 29.79 0 Peak wind: 50 mph (44 kts) from 310° at 43 min
2018-10-19 01:00 42 29 28 59 310° 41 49 - 29.77 0 Peak wind: 54 mph (47 kts) from 290° at 20 min
2018-10-19 00:00 40 30 26 66 310° 43 51 - 29.74 0 Peak wind: 55 mph (48 kts) from 310° at 25 min
2018-10-18 23:00 42 31 29 63 310° 43 48 - 29.71 0 Peak wind: 51 mph (45 kts) from 310° at 19 min
2018-10-18 22:00 42 32 28 67 320° 43 49 - 29.67 0 Peak wind: 52 mph (46 kts) from 320° at 47 min
1-hr Precip Total: 0.01"
2018-10-18 21:00 39 38 24 95 290° 41 48 - 29.63 0 Peak wind: 51 mph (45 kts) from 290° at 37 min
1-hr Precip Total: 0.12"
2018-10-18 20:00 37 36 22 94 290° 37 51 - 29.59 0 Peak wind: 50 mph (44 kts) from 280° at 00 min
1-hr Precip Total: 0.15"
2018-10-18 19:00 36 34 22 91 270° 28 38 - 29.59 0 Peak wind: 55 mph (48 kts) from 290° at 10 min
1-hr Precip Total: 0.09"
2018-10-18 18:00 39 32 25 76 280° 30 38 - 29.57 0 Peak wind: 44 mph (39 kts) from 290° at 48 min
1-hr Precip Total: 0.55"
2018-10-18 17:00 39 27 28 61 260° 17 28 - 29.57 0 Peak wind: 33 mph (29 kts) from 260° at 27 min
2018-10-18 16:00 40 29 28 65 270° 21 31 - 29.57 0 Peak wind: 37 mph (33 kts) from 290° at 42 min
2018-10-18 15:00 40 30 28 67 270° 21 31 - 29.58 0 Peak wind: 41 mph (36 kts) from 270° at 02 min
2018-10-18 14:00 41 32 27 71 280° 31 44 - 29.57 0 Peak wind: 43 mph (38 kts) from 280° at 58 min
2018-10-18 13:00 39 32 27 74 270° 23 33 - 29.56 0 Peak wind: 33 mph (29 kts) from 280° at 01 min
2018-10-18 12:00 38 31 26 75 270° 20 29 - 29.55 0 Peak wind: 28 mph (25 kts) from 270° at 54 min
2018-10-18 11:00 39 34 29 84 260° 13 20 - 29.54 0 Peak wind: 19 mph (17 kts) from 270° at 52 min
2018-10-18 10:00 38 33 32 84 250° 8 - - 29.54 0 None
2018-10-18 09:00 39 35 33 84 250° 9 - - 29.54 0 Peak wind: 20 mph (18 kts) from 250° at 00 min
2018-10-18 08:00 40 36 31 83 260° 14 21 - 29.52 0 Peak wind: 21 mph (19 kts) from 280° at 36 min

Support USWX by starting your Amazon purchase here.